createdAt,value
2018-04-02T00:00:28.754Z,7.10
2018-04-02T00:02:56.522Z,7.30
2018-04-02T00:05:24.118Z,7.30
2018-04-02T00:07:51.687Z,7.20
2018-04-02T00:10:19.273Z,7.00
2018-04-02T00:12:47.606Z,7.00
2018-04-02T00:15:15.197Z,7.00
2018-04-02T00:17:42.814Z,7.10
2018-04-02T00:20:10.391Z,7.00
2018-04-02T00:22:37.990Z,6.90
2018-04-02T00:25:05.557Z,7.00
2018-04-02T00:27:33.926Z,6.80
2018-04-02T00:30:02.254Z,6.80
2018-04-02T00:32:29.858Z,6.80
2018-04-02T00:34:58.199Z,6.50
2018-04-02T00:37:25.800Z,6.40
2018-04-02T00:39:53.375Z,6.40
2018-04-02T00:42:20.961Z,6.40
2018-04-02T00:44:48.525Z,6.30
2018-04-02T00:47:16.109Z,6.40
2018-04-02T00:49:43.677Z,6.40
2018-04-02T00:52:11.273Z,6.40
2018-04-02T00:54:38.837Z,6.30
2018-04-02T00:57:06.430Z,6.30
2018-04-02T00:59:34.006Z,6.20
2018-04-02T01:02:01.594Z,6.10
2018-04-02T01:04:29.934Z,6.00
2018-04-02T01:06:57.525Z,6.00
2018-04-02T01:09:25.870Z,5.90
2018-04-02T01:11:53.470Z,5.90
2018-04-02T01:14:21.045Z,5.80
2018-04-02T01:16:48.639Z,5.70
2018-04-02T01:19:16.229Z,5.70
2018-04-02T01:21:43.830Z,5.70
2018-04-02T01:24:11.400Z,5.80
2018-04-02T01:26:38.986Z,5.60
2018-04-02T01:29:06.570Z,5.60
2018-04-02T01:31:34.916Z,5.60
2018-04-02T01:34:02.515Z,5.60
2018-04-02T01:36:30.089Z,5.50
2018-04-02T01:38:57.689Z,5.40
2018-04-02T01:41:25.265Z,5.20
2018-04-02T01:43:53.686Z,5.00
2018-04-02T01:46:21.253Z,5.00
2018-04-02T01:48:48.842Z,5.00
2018-04-02T01:51:16.415Z,4.80
2018-04-02T01:53:43.997Z,4.70
2018-04-02T01:56:11.565Z,4.70
2018-04-02T01:58:39.919Z,4.70
2018-04-02T02:01:07.482Z,4.60
2018-04-02T02:03:35.071Z,4.60
2018-04-02T02:06:02.646Z,4.50
2018-04-02T02:08:30.248Z,4.40
2018-04-02T02:10:57.823Z,4.20
2018-04-02T02:13:25.422Z,4.10
2018-04-02T02:15:52.993Z,4.00
2018-04-02T02:18:20.606Z,3.90
2018-04-02T02:20:48.177Z,4.00
2018-04-02T02:23:15.767Z,4.00
2018-04-02T02:25:43.330Z,4.00
2018-04-02T02:28:10.918Z,3.90
2018-04-02T02:30:38.504Z,3.80
2018-04-02T02:33:06.875Z,3.70
2018-04-02T02:35:34.441Z,3.70
2018-04-02T02:38:02.018Z,3.70
2018-04-02T02:40:29.662Z,3.70
2018-04-02T02:42:57.230Z,3.70
2018-04-02T02:45:24.842Z,3.70
2018-04-02T02:47:52.405Z,3.60
2018-04-02T02:50:20.007Z,3.50
2018-04-02T02:52:47.582Z,3.40
2018-04-02T02:55:15.173Z,3.40
2018-04-02T02:57:42.752Z,3.40
2018-04-02T03:00:10.344Z,3.60
2018-04-02T03:02:38.684Z,3.30
2018-04-02T03:05:06.345Z,3.20
2018-04-02T03:07:33.874Z,3.20
2018-04-02T03:10:01.472Z,3.10
2018-04-02T03:12:29.033Z,3.20
2018-04-02T03:14:56.623Z,3.20
2018-04-02T03:17:24.189Z,3.00
2018-04-02T03:19:51.778Z,2.90
2018-04-02T03:22:19.351Z,2.80
2018-04-02T03:24:46.950Z,2.90
2018-04-02T03:27:14.514Z,2.80
2018-04-02T03:29:42.878Z,2.80
2018-04-02T03:32:11.211Z,2.70
2018-04-02T03:34:38.805Z,2.70
2018-04-02T03:37:06.374Z,2.70
2018-04-02T03:39:33.975Z,2.70
2018-04-02T03:42:01.538Z,2.80
2018-04-02T03:44:29.124Z,2.90
2018-04-02T03:46:56.694Z,2.80
2018-04-02T03:49:24.282Z,2.60
2018-04-02T03:51:52.618Z,2.50
2018-04-02T03:54:20.981Z,2.50
2018-04-02T03:56:48.549Z,2.50
2018-04-02T03:59:16.110Z,2.60
2018-04-02T04:01:43.706Z,2.60
2018-04-02T04:04:12.050Z,2.50
2018-04-02T04:06:39.642Z,2.50
2018-04-02T04:09:07.974Z,2.40
2018-04-02T04:11:35.578Z,2.40
2018-04-02T04:14:03.909Z,2.40
2018-04-02T04:16:31.497Z,2.40
2018-04-02T04:18:59.065Z,2.40
2018-04-02T04:21:27.433Z,2.30
2018-04-02T04:23:55.005Z,2.30
2018-04-02T04:26:22.597Z,2.40
2018-04-02T04:28:50.171Z,2.40
2018-04-02T04:31:17.766Z,2.20
2018-04-02T04:33:45.329Z,2.20
2018-04-02T04:36:12.925Z,2.10
2018-04-02T04:38:40.494Z,2.10
2018-04-02T04:41:08.085Z,2.10
2018-04-02T04:43:35.661Z,2.10
2018-04-02T04:46:03.305Z,2.10
2018-04-02T04:48:30.852Z,2.10
2018-04-02T04:50:58.442Z,2.20
2018-04-02T04:53:26.017Z,2.10
2018-04-02T04:55:54.370Z,1.90
2018-04-02T04:58:21.968Z,1.90
2018-04-02T05:00:50.321Z,1.90
2018-04-02T05:03:17.890Z,1.90
2018-04-02T05:05:46.246Z,1.90
2018-04-02T05:08:13.821Z,1.90
2018-04-02T05:10:41.425Z,1.90
2018-04-02T05:13:08.986Z,2.00
2018-04-02T05:15:36.573Z,2.10
2018-04-02T05:18:04.137Z,2.00
2018-04-02T05:20:31.720Z,1.90
2018-04-02T05:22:59.315Z,1.90
2018-04-02T05:25:26.957Z,1.80
2018-04-02T05:27:54.541Z,1.80
2018-04-02T05:30:22.145Z,1.80
2018-04-02T05:32:49.762Z,1.80
2018-04-02T05:35:17.339Z,1.80
2018-04-02T05:37:44.921Z,1.80
2018-04-02T05:40:12.486Z,1.80
2018-04-02T05:42:40.849Z,1.80
2018-04-02T05:45:08.427Z,1.80
2018-04-02T05:47:36.023Z,1.90
2018-04-02T05:50:03.587Z,1.90
2018-04-02T05:52:31.185Z,2.00
2018-04-02T05:54:58.748Z,2.00
2018-04-02T05:57:26.340Z,2.00
2018-04-02T05:59:54.681Z,2.10
2018-04-02T06:02:22.265Z,2.10
2018-04-02T06:04:49.836Z,2.10
2018-04-02T06:07:18.185Z,2.10
2018-04-02T06:09:45.754Z,2.10
2018-04-02T06:12:13.345Z,2.20
2018-04-02T06:14:40.905Z,2.40
2018-04-02T06:17:08.494Z,2.40
2018-04-02T06:19:36.053Z,2.70
2018-04-02T06:22:03.646Z,3.20
2018-04-02T06:24:31.224Z,3.70
2018-04-02T06:26:59.561Z,4.90
2018-04-02T06:29:27.156Z,4.90
2018-04-02T06:31:55.494Z,6.20
2018-04-02T06:34:23.090Z,6.20
2018-04-02T06:36:51.417Z,7.50
2018-04-02T06:39:19.010Z,7.50
2018-04-02T06:41:46.589Z,8.10
2018-04-02T06:44:14.952Z,9.30
2018-04-02T06:46:43.288Z,9.70
2018-04-02T06:49:10.894Z,9.70
2018-04-02T06:51:38.470Z,10.10
2018-04-02T06:54:06.078Z,10.60
2018-04-02T06:56:33.693Z,11.10
2018-04-02T06:59:01.293Z,11.70
2018-04-02T07:01:29.343Z,12.20
2018-04-02T07:03:56.933Z,12.70
2018-04-02T07:06:24.506Z,13.10
2018-04-02T07:08:52.105Z,13.40
2018-04-02T07:11:19.675Z,13.90
2018-04-02T07:13:47.270Z,14.20
2018-04-02T07:16:14.837Z,14.50
2018-04-02T07:18:42.453Z,14.60
2018-04-02T07:21:10.022Z,14.70
2018-04-02T07:23:37.611Z,15.10
2018-04-02T07:26:05.185Z,15.50
2018-04-02T07:28:33.546Z,15.90
2018-04-02T07:31:01.122Z,15.90
2018-04-02T07:33:29.490Z,16.30
2018-04-02T07:35:58.001Z,16.30
2018-04-02T07:38:25.593Z,16.70
2018-04-02T07:40:53.167Z,17.00
2018-04-02T07:43:20.742Z,17.30
2018-04-02T07:45:48.341Z,17.70
2018-04-02T07:48:15.925Z,18.20
2018-04-02T07:50:43.523Z,18.60
2018-04-02T07:53:11.088Z,19.10
2018-04-02T07:55:38.683Z,19.50
2018-04-02T07:58:06.256Z,19.90
2018-04-02T08:00:33.851Z,20.30
2018-04-02T08:03:01.426Z,20.60
2018-04-02T08:05:29.025Z,21.00
2018-04-02T08:07:56.600Z,21.10
2018-04-02T08:10:24.189Z,21.50
2018-04-02T08:12:52.446Z,21.90
2018-04-02T08:15:20.037Z,22.30
2018-04-02T08:17:47.612Z,22.50
2018-04-02T08:20:15.210Z,22.70
2018-04-02T08:22:42.810Z,23.30
2018-04-02T08:25:10.397Z,23.50
2018-04-02T08:27:37.968Z,23.90
2018-04-02T08:30:05.564Z,24.00
2018-04-02T08:32:33.205Z,24.20
2018-04-02T08:35:01.525Z,24.40
2018-04-02T08:37:29.110Z,24.30
2018-04-02T08:39:57.475Z,24.60
2018-04-02T08:42:25.041Z,24.60
2018-04-02T08:44:52.649Z,24.80
2018-04-02T08:47:20.221Z,24.90
2018-04-02T08:49:47.814Z,25.00
2018-04-02T08:52:16.148Z,24.60
2018-04-02T08:54:44.620Z,24.60
2018-04-02T08:57:12.189Z,24.30
2018-04-02T08:59:39.758Z,24.50
2018-04-02T09:02:07.367Z,24.10
2018-04-02T09:04:34.933Z,24.40
2018-04-02T09:07:02.529Z,24.80
2018-04-02T09:09:30.106Z,25.30
2018-04-02T09:11:57.701Z,25.50
2018-04-02T09:14:25.273Z,25.50
2018-04-02T09:16:52.861Z,25.90
2018-04-02T09:19:20.432Z,26.10
2018-04-02T09:21:48.027Z,25.90
2018-04-02T09:24:15.597Z,26.00
2018-04-02T09:26:43.198Z,26.20
2018-04-02T09:29:10.766Z,26.30
2018-04-02T09:31:38.360Z,26.30
2018-04-02T09:34:06.706Z,25.70
2018-04-02T09:36:34.297Z,25.70
2018-04-02T09:39:01.869Z,25.00
2018-04-02T09:41:29.466Z,25.10
2018-04-02T09:43:57.045Z,24.90
2018-04-02T09:46:24.641Z,24.80
2018-04-02T09:48:53.003Z,24.30
2018-04-02T09:51:20.607Z,24.30
2018-04-02T09:53:48.173Z,24.10
2018-04-02T09:56:15.766Z,23.80
2018-04-02T09:58:43.337Z,23.70
2018-04-02T10:01:11.862Z,23.70
2018-04-02T10:03:39.437Z,23.60
2018-04-02T10:06:07.030Z,23.20
2018-04-02T10:08:34.599Z,23.00
2018-04-02T10:11:02.193Z,22.80
2018-04-02T10:13:29.764Z,22.60
2018-04-02T10:15:57.335Z,22.60
2018-04-02T10:18:24.936Z,22.40
2018-04-02T10:20:53.264Z,21.60
2018-04-02T10:23:20.848Z,21.60
2018-04-02T10:25:49.930Z,21.50
2018-04-02T10:28:17.577Z,21.50
2018-04-02T10:30:45.184Z,21.40
2018-04-02T10:33:12.770Z,21.50
2018-04-02T10:35:40.342Z,21.60
2018-04-02T10:38:08.141Z,21.90
2018-04-02T10:40:35.714Z,22.00
2018-04-02T10:43:03.326Z,22.10
2018-04-02T10:45:30.897Z,22.10
2018-04-02T10:47:58.499Z,22.30
2018-04-02T10:50:26.076Z,22.10
2018-04-02T10:52:54.442Z,22.60
2018-04-02T10:55:22.777Z,22.80
2018-04-02T10:57:50.631Z,22.80
2018-04-02T11:00:18.204Z,22.80
2018-04-02T11:02:45.797Z,22.90
2018-04-02T11:05:13.384Z,22.80
2018-04-02T11:07:40.972Z,22.60
2018-04-02T11:10:08.538Z,22.60
2018-04-02T11:12:36.130Z,22.30
2018-04-02T11:15:03.719Z,22.00
2018-04-02T11:17:31.321Z,21.70
2018-04-02T11:19:58.921Z,21.40
2018-04-02T11:22:27.270Z,21.10
2018-04-02T11:24:54.857Z,21.00
2018-04-02T11:27:22.441Z,21.00
2018-04-02T11:29:50.053Z,20.90
2018-04-02T11:32:17.627Z,20.90
2018-04-02T11:34:45.223Z,21.00
2018-04-02T11:37:12.790Z,20.80
2018-04-02T11:39:40.382Z,20.60
2018-04-02T11:42:07.961Z,20.50
2018-04-02T11:44:35.553Z,20.60
2018-04-02T11:47:03.131Z,20.40
2018-04-02T11:49:30.745Z,20.20
2018-04-02T11:51:58.321Z,20.20
2018-04-02T11:54:26.687Z,19.90
2018-04-02T11:56:55.030Z,19.80
2018-04-02T11:59:22.625Z,19.80
2018-04-02T12:01:50.967Z,19.70
2018-04-02T12:04:18.561Z,19.60
2018-04-02T12:06:46.136Z,19.60
2018-04-02T12:09:13.733Z,19.60
2018-04-02T12:11:42.086Z,19.60
2018-04-02T12:14:09.686Z,19.50
2018-04-02T12:16:37.261Z,19.30
2018-04-02T12:19:04.858Z,19.30
2018-04-02T12:21:32.449Z,19.30
2018-04-02T12:24:00.066Z,19.30
2018-04-02T12:26:27.650Z,19.20
2018-04-02T12:28:55.265Z,19.10
2018-04-02T12:31:22.833Z,19.10
2018-04-02T12:33:51.195Z,19.00
2018-04-02T12:36:18.766Z,19.00
2018-04-02T12:38:47.148Z,19.10
2018-04-02T12:41:15.490Z,19.20
2018-04-02T12:43:43.058Z,19.20
2018-04-02T12:46:10.648Z,19.20
2018-04-02T12:48:38.981Z,19.30
2018-04-02T12:51:06.587Z,19.20
2018-04-02T12:53:34.205Z,19.40
2018-04-02T12:56:01.793Z,19.30
2018-04-02T12:58:29.365Z,19.30
2018-04-02T13:00:57.726Z,19.50
2018-04-02T13:03:25.299Z,19.50
2018-04-02T13:05:53.658Z,19.60
2018-04-02T13:08:21.225Z,19.60
2018-04-02T13:10:49.651Z,19.50
2018-04-02T13:13:17.214Z,19.60
2018-04-02T13:15:44.863Z,19.40
2018-04-02T13:18:12.399Z,19.40
2018-04-02T13:20:39.994Z,19.40
2018-04-02T13:23:07.555Z,19.30
2018-04-02T13:25:35.149Z,19.20
2018-04-02T13:28:03.491Z,19.50
2018-04-02T13:30:31.078Z,19.50
2018-04-02T13:32:58.654Z,19.60
2018-04-02T13:35:26.248Z,19.70
2018-04-02T13:37:53.816Z,19.70
2018-04-02T13:40:21.422Z,19.70
2018-04-02T13:42:48.998Z,19.70
2018-04-02T13:45:16.593Z,19.70
2018-04-02T13:47:44.164Z,19.70
2018-04-02T13:50:11.766Z,19.70
2018-04-02T13:52:39.341Z,19.70
2018-04-02T13:55:07.706Z,19.70
2018-04-02T13:57:35.302Z,19.70
2018-04-02T14:00:02.869Z,19.80
2018-04-02T14:02:30.485Z,19.70
2018-04-02T14:04:58.071Z,19.70
2018-04-02T14:07:25.666Z,19.70
2018-04-02T14:09:53.290Z,19.70
2018-04-02T14:12:20.881Z,19.70
2018-04-02T14:14:48.453Z,19.50
2018-04-02T14:17:16.045Z,19.60
2018-04-02T14:19:44.386Z,19.50
2018-04-02T14:22:11.977Z,19.50
2018-04-02T14:24:39.561Z,19.50
2018-04-02T14:27:07.157Z,19.40
2018-04-02T14:29:34.723Z,19.30
2018-04-02T14:32:02.317Z,19.30
2018-04-02T14:34:30.653Z,19.20
2018-04-02T14:36:58.250Z,19.20
2018-04-02T14:39:26.594Z,19.10
2018-04-02T14:41:54.186Z,19.10
2018-04-02T14:44:21.760Z,19.10
2018-04-02T14:46:50.128Z,19.00
2018-04-02T14:49:18.474Z,18.90
2018-04-02T14:51:46.074Z,19.00
2018-04-02T14:54:13.641Z,18.90
2018-04-02T14:56:42.938Z,18.90
2018-04-02T14:59:10.515Z,18.90
2018-04-02T15:01:38.110Z,19.00
2018-04-02T15:04:05.707Z,18.80
2018-04-02T15:06:34.082Z,18.80
2018-04-02T15:09:02.426Z,18.60
2018-04-02T15:11:30.006Z,18.60
2018-04-02T15:13:57.607Z,18.50
2018-04-02T15:16:25.193Z,18.50
2018-04-02T15:18:52.810Z,18.40
2018-04-02T15:21:20.382Z,18.30
2018-04-02T15:23:47.970Z,18.30
2018-04-02T15:26:15.541Z,18.30
2018-04-02T15:28:43.141Z,18.20
2018-04-02T15:31:10.723Z,18.10
2018-04-02T15:33:38.319Z,18.10
2018-04-02T15:36:05.889Z,18.00
2018-04-02T15:38:33.485Z,18.00
2018-04-02T15:41:01.066Z,18.00
2018-04-02T15:43:28.668Z,17.90
2018-04-02T15:45:57.026Z,17.80
2018-04-02T15:48:24.617Z,17.80
2018-04-02T15:50:52.218Z,17.90
2018-04-02T15:53:19.817Z,17.80
2018-04-02T15:55:47.402Z,17.80
2018-04-02T15:58:14.998Z,17.70
2018-04-02T16:00:42.573Z,17.50
2018-04-02T16:03:10.200Z,17.50
2018-04-02T16:05:37.778Z,17.50
2018-04-02T16:08:05.383Z,17.50
2018-04-02T16:10:32.966Z,17.40
2018-04-02T16:13:00.542Z,17.30
2018-04-02T16:15:29.794Z,17.40
2018-04-02T16:17:57.358Z,17.30
2018-04-02T16:20:24.952Z,17.20
2018-04-02T16:22:52.530Z,17.20
2018-04-02T16:25:20.133Z,17.30
2018-04-02T16:27:47.717Z,17.30
2018-04-02T16:30:15.317Z,17.10
2018-04-02T16:32:42.927Z,17.10
2018-04-02T16:35:10.526Z,17.00
2018-04-02T16:37:38.105Z,16.90
2018-04-02T16:40:05.739Z,16.90
2018-04-02T16:42:33.316Z,16.90
2018-04-02T16:45:01.673Z,16.90
2018-04-02T16:47:29.245Z,16.80
2018-04-02T16:49:56.845Z,16.80
2018-04-02T16:52:24.423Z,16.80
2018-04-02T16:54:52.020Z,16.70
2018-04-02T16:57:19.596Z,16.50
2018-04-02T16:59:47.958Z,16.30
2018-04-02T17:02:15.529Z,16.20
2018-04-02T17:04:43.124Z,16.20
2018-04-02T17:07:11.470Z,16.00
2018-04-02T17:09:39.117Z,16.00
2018-04-02T17:12:06.878Z,15.90
2018-04-02T17:14:39.969Z,15.90
2018-04-02T17:17:08.384Z,15.60
2018-04-02T17:19:35.981Z,15.60
2018-04-02T17:22:03.566Z,15.60
2018-04-02T17:24:31.141Z,15.50
2018-04-02T17:26:59.509Z,15.30
2018-04-02T17:29:27.086Z,15.30
2018-04-02T17:31:54.670Z,15.20
2018-04-02T17:34:22.243Z,15.20
2018-04-02T17:36:49.837Z,15.10
2018-04-02T17:39:17.410Z,15.00
2018-04-02T17:41:45.003Z,14.90
2018-04-02T17:44:12.575Z,15.00
2018-04-02T17:46:40.177Z,15.00
2018-04-02T17:49:07.749Z,14.60
2018-04-02T17:51:35.450Z,14.60
2018-04-02T17:54:03.021Z,14.60
2018-04-02T17:56:30.630Z,14.60
2018-04-02T17:58:58.206Z,14.50
2018-04-02T18:01:25.814Z,14.50
2018-04-02T18:03:53.387Z,14.40
2018-04-02T18:06:20.985Z,14.30
2018-04-02T18:08:48.578Z,14.30
2018-04-02T18:11:16.173Z,14.30
2018-04-02T18:13:43.746Z,14.30
2018-04-02T18:16:11.350Z,14.20
2018-04-02T18:18:38.920Z,14.20
2018-04-02T18:21:06.721Z,14.20
2018-04-02T18:23:34.283Z,14.20
2018-04-02T18:26:01.930Z,14.10
2018-04-02T18:28:29.518Z,13.80
2018-04-02T18:30:57.127Z,13.80
2018-04-02T18:33:24.722Z,13.70
2018-04-02T18:35:52.452Z,13.80
2018-04-02T18:38:20.018Z,13.50
2018-04-02T18:40:48.320Z,13.40
2018-04-02T18:43:16.631Z,13.40
2018-04-02T18:45:44.756Z,13.30
2018-04-02T18:48:12.782Z,13.20
2018-04-02T18:50:40.417Z,13.30
2018-04-02T18:53:08.008Z,13.40
2018-04-02T18:55:37.062Z,13.30
2018-04-02T18:58:04.654Z,13.30
2018-04-02T19:00:32.241Z,13.30
2018-04-02T19:02:59.833Z,13.20
2018-04-02T19:05:27.402Z,13.20
2018-04-02T19:07:55.236Z,13.00
2018-04-02T19:10:22.812Z,13.10
2018-04-02T19:12:50.411Z,13.10
2018-04-02T19:15:18.752Z,13.10
2018-04-02T19:17:46.355Z,13.10
2018-04-02T19:20:13.973Z,12.90
2018-04-02T19:22:41.535Z,12.90
2018-04-02T19:25:09.154Z,12.70
2018-04-02T19:27:36.751Z,12.80
2018-04-02T19:30:04.366Z,12.90
2018-04-02T19:32:31.961Z,12.80
2018-04-02T19:34:59.541Z,12.70
2018-04-02T19:37:27.229Z,12.70
2018-04-02T19:39:54.751Z,12.70
2018-04-02T19:42:22.345Z,12.70
2018-04-02T19:44:50.673Z,12.50
2018-04-02T19:47:18.277Z,12.50
2018-04-02T19:49:45.850Z,12.30
2018-04-02T19:52:13.427Z,12.40
2018-04-02T19:54:41.040Z,12.40
2018-04-02T19:57:08.621Z,12.30
2018-04-02T19:59:36.983Z,12.60
2018-04-02T20:02:04.558Z,12.60
2018-04-02T20:04:32.151Z,12.50
2018-04-02T20:07:00.621Z,12.40
2018-04-02T20:09:28.220Z,12.30
2018-04-02T20:11:56.566Z,12.20
2018-04-02T20:14:24.166Z,12.20
2018-04-02T20:16:51.742Z,12.30
2018-04-02T20:19:20.116Z,12.40
2018-04-02T20:21:47.690Z,12.30
2018-04-02T20:24:15.296Z,12.20
2018-04-02T20:26:42.865Z,12.20
2018-04-02T20:29:11.226Z,12.10
2018-04-02T20:31:38.793Z,12.10
2018-04-02T20:34:06.396Z,12.10
2018-04-02T20:36:33.972Z,12.00
2018-04-02T20:39:01.591Z,12.10
2018-04-02T20:41:29.202Z,12.00
2018-04-02T20:43:56.797Z,11.90
2018-04-02T20:46:24.373Z,11.80
2018-04-02T20:48:51.970Z,11.80
2018-04-02T20:51:19.536Z,11.80
2018-04-02T20:53:47.135Z,12.10
2018-04-02T20:56:14.721Z,12.00
2018-04-02T20:58:42.297Z,11.90
2018-04-02T21:01:09.894Z,11.90
2018-04-02T21:03:37.469Z,11.80
2018-04-02T21:06:05.073Z,11.70
2018-04-02T21:08:33.406Z,11.90
2018-04-02T21:11:00.997Z,11.90
2018-04-02T21:13:28.565Z,12.00
2018-04-02T21:15:56.926Z,11.90
2018-04-02T21:18:24.497Z,11.80
2018-04-02T21:20:52.852Z,11.70
2018-04-02T21:23:20.413Z,11.70
2018-04-02T21:25:48.007Z,11.70
2018-04-02T21:28:15.586Z,11.70
2018-04-02T21:30:43.183Z,11.80
2018-04-02T21:33:10.758Z,11.60
2018-04-02T21:35:38.351Z,11.60
2018-04-02T21:38:05.925Z,11.60
2018-04-02T21:40:33.542Z,11.50
2018-04-02T21:43:01.128Z,11.60
2018-04-02T21:45:28.727Z,11.40
2018-04-02T21:47:56.355Z,11.40
2018-04-02T21:50:23.952Z,11.30
2018-04-02T21:52:51.523Z,11.30
2018-04-02T21:55:19.114Z,11.30
2018-04-02T21:57:47.442Z,11.10
2018-04-02T22:00:15.043Z,11.10
2018-04-02T22:02:42.610Z,11.10
2018-04-02T22:05:10.207Z,11.00
2018-04-02T22:07:37.784Z,11.00
2018-04-02T22:10:06.153Z,10.90
2018-04-02T22:12:33.717Z,10.80
2018-04-02T22:15:01.291Z,10.90
2018-04-02T22:17:28.886Z,10.80
2018-04-02T22:19:56.451Z,10.70
2018-04-02T22:22:24.042Z,10.60
2018-04-02T22:24:51.605Z,10.40
2018-04-02T22:27:19.198Z,10.30
2018-04-02T22:29:46.765Z,10.30
2018-04-02T22:32:14.357Z,10.50
2018-04-02T22:34:41.934Z,10.50
2018-04-02T22:37:09.526Z,10.50
2018-04-02T22:39:37.106Z,10.50
2018-04-02T22:42:04.703Z,10.30
2018-04-02T22:44:33.108Z,10.20
2018-04-02T22:47:00.706Z,10.20
2018-04-02T22:49:28.278Z,10.10
2018-04-02T22:51:55.876Z,10.10
2018-04-02T22:54:23.453Z,10.00
2018-04-02T22:56:51.049Z,10.00
2018-04-02T22:59:19.390Z,10.00
2018-04-02T23:01:46.989Z,10.00
2018-04-02T23:04:14.566Z,10.10
2018-04-02T23:06:42.162Z,10.10
2018-04-02T23:09:09.729Z,9.90
2018-04-02T23:11:37.318Z,9.90
2018-04-02T23:14:05.645Z,9.90
2018-04-02T23:16:33.244Z,9.90
2018-04-02T23:19:00.834Z,9.80
2018-04-02T23:21:28.421Z,9.90
2018-04-02T23:23:55.988Z,10.00
2018-04-02T23:26:23.553Z,10.00
2018-04-02T23:28:51.145Z,9.80
2018-04-02T23:31:18.719Z,9.90
2018-04-02T23:33:46.321Z,9.90
2018-04-02T23:36:13.893Z,9.90
2018-04-02T23:38:41.481Z,9.90
2018-04-02T23:41:09.811Z,9.90
2018-04-02T23:43:37.398Z,9.80
2018-04-02T23:46:05.040Z,10.00
2018-04-02T23:48:32.640Z,10.00
2018-04-02T23:51:00.222Z,10.10
2018-04-02T23:53:27.817Z,10.10
2018-04-02T23:55:55.393Z,10.30
2018-04-02T23:58:22.998Z,10.50
